createdAt,value
2018-03-28T00:01:35.954Z,82.40
2018-03-28T00:04:02.184Z,81.60
2018-03-28T00:06:28.476Z,82.10
2018-03-28T00:08:54.736Z,81.70
2018-03-28T00:11:21.004Z,81.70
2018-03-28T00:13:47.186Z,81.80
2018-03-28T00:16:14.139Z,81.50
2018-03-28T00:18:40.359Z,81.40
2018-03-28T00:21:06.608Z,81.40
2018-03-28T00:23:32.801Z,81.20
2018-03-28T00:25:59.790Z,81.10
2018-03-28T00:28:25.999Z,81.00
2018-03-28T00:30:52.218Z,81.00
2018-03-28T00:33:19.541Z,80.60
2018-03-28T00:35:45.794Z,80.30
2018-03-28T00:38:12.787Z,80.60
2018-03-28T00:40:38.942Z,80.50
2018-03-28T00:43:05.191Z,80.40
2018-03-28T00:45:32.282Z,80.30
2018-03-28T00:47:58.513Z,80.10
2018-03-28T00:50:24.721Z,79.80
2018-03-28T00:52:50.936Z,79.80
2018-03-28T00:55:17.164Z,79.80
2018-03-28T00:57:43.427Z,79.70
2018-03-28T01:00:09.637Z,79.80
2018-03-28T01:02:35.834Z,79.90
2018-03-28T01:05:02.830Z,80.20
2018-03-28T01:07:29.081Z,80.20
2018-03-28T01:09:55.292Z,80.20
2018-03-28T01:12:21.534Z,80.70
2018-03-28T01:14:48.760Z,80.30
2018-03-28T01:17:15.004Z,80.70
2018-03-28T01:19:41.249Z,80.30
2018-03-28T01:22:07.484Z,80.00
2018-03-28T01:24:33.741Z,79.70
2018-03-28T01:26:59.975Z,79.70
2018-03-28T01:29:26.236Z,79.70
2018-03-28T01:31:52.454Z,79.80
2018-03-28T01:34:18.684Z,79.80
2018-03-28T01:36:44.986Z,80.00
2018-03-28T01:39:11.228Z,80.10
2018-03-28T01:41:37.472Z,79.80
2018-03-28T01:44:03.691Z,80.60
2018-03-28T01:46:29.930Z,80.40
2018-03-28T01:48:56.133Z,80.70
2018-03-28T01:51:22.394Z,81.20
2018-03-28T01:53:48.613Z,81.20
2018-03-28T01:56:14.821Z,80.80
2018-03-28T01:58:41.010Z,81.20
2018-03-28T02:01:07.271Z,81.20
2018-03-28T02:03:33.550Z,80.70
2018-03-28T02:05:59.820Z,80.80
2018-03-28T02:08:26.051Z,80.60
2018-03-28T02:10:52.270Z,80.20
2018-03-28T02:13:19.249Z,80.30
2018-03-28T02:15:45.465Z,80.30
2018-03-28T02:18:11.644Z,80.30
2018-03-28T02:20:38.655Z,80.20
2018-03-28T02:23:04.881Z,80.00
2018-03-28T02:25:31.095Z,80.00
2018-03-28T02:27:57.376Z,79.60
2018-03-28T02:30:23.567Z,79.80
2018-03-28T02:32:49.804Z,80.00
2018-03-28T02:35:16.053Z,79.70
2018-03-28T02:37:42.285Z,79.60
2018-03-28T02:40:08.542Z,80.50
2018-03-28T02:42:34.791Z,80.10
2018-03-28T02:45:01.045Z,81.00
2018-03-28T02:47:27.303Z,80.80
2018-03-28T02:49:53.516Z,81.40
2018-03-28T02:52:19.750Z,81.40
2018-03-28T02:54:46.005Z,81.00
2018-03-28T02:57:12.948Z,81.20
2018-03-28T02:59:39.909Z,81.10
2018-03-28T03:02:06.174Z,81.10
2018-03-28T03:04:32.390Z,81.00
2018-03-28T03:06:59.671Z,81.10
2018-03-28T03:09:25.915Z,81.10
2018-03-28T03:11:52.889Z,81.40
2018-03-28T03:14:19.102Z,81.40
2018-03-28T03:16:45.401Z,81.50
2018-03-28T03:19:11.605Z,81.50
2018-03-28T03:21:37.812Z,81.70
2018-03-28T03:24:04.008Z,81.20
2018-03-28T03:26:30.963Z,81.80
2018-03-28T03:28:57.947Z,82.30
2018-03-28T03:31:24.178Z,82.90
2018-03-28T03:33:50.413Z,82.10
2018-03-28T03:36:16.661Z,82.20
2018-03-28T03:38:42.984Z,81.70
2018-03-28T03:41:09.204Z,81.50
2018-03-28T03:43:35.454Z,81.00
2018-03-28T03:46:01.714Z,81.20
2018-03-28T03:48:27.941Z,81.60
2018-03-28T03:50:54.163Z,81.10
2018-03-28T03:53:21.124Z,81.00
2018-03-28T03:55:47.328Z,80.90
2018-03-28T03:58:14.329Z,80.80
2018-03-28T04:00:42.543Z,80.60
2018-03-28T04:03:09.505Z,80.90
2018-03-28T04:05:36.462Z,81.00
2018-03-28T04:08:07.345Z,81.00
2018-03-28T04:10:33.588Z,81.20
2018-03-28T04:12:59.810Z,80.80
2018-03-28T04:15:26.083Z,80.30
2018-03-28T04:17:52.373Z,79.80
2018-03-28T04:20:18.591Z,80.10
2018-03-28T04:22:44.893Z,79.70
2018-03-28T04:25:11.100Z,80.10
2018-03-28T04:27:37.313Z,80.00
2018-03-28T04:30:03.662Z,79.80
2018-03-28T04:32:29.870Z,79.80
2018-03-28T04:34:56.869Z,79.40
2018-03-28T04:37:23.070Z,79.40
2018-03-28T04:39:49.269Z,79.20
2018-03-28T04:42:16.221Z,79.10
2018-03-28T04:44:42.474Z,79.10
2018-03-28T04:47:08.683Z,79.00
2018-03-28T04:49:34.959Z,78.80
2018-03-28T04:52:01.233Z,78.40
2018-03-28T04:54:27.487Z,78.20
2018-03-28T04:56:53.718Z,77.60
2018-03-28T04:59:19.950Z,77.80
2018-03-28T05:01:46.156Z,77.60
2018-03-28T05:04:12.416Z,77.40
2018-03-28T05:06:38.600Z,77.50
2018-03-28T05:09:04.891Z,77.00
2018-03-28T05:11:31.221Z,76.60
2018-03-28T05:13:57.514Z,76.40
2018-03-28T05:16:23.757Z,76.20
2018-03-28T05:18:50.015Z,75.90
2018-03-28T05:21:16.253Z,75.50
2018-03-28T05:23:43.260Z,75.50
2018-03-28T05:26:09.533Z,75.00
2018-03-28T05:28:36.518Z,74.50
2018-03-28T05:31:02.756Z,74.40
2018-03-28T05:33:29.048Z,74.00
2018-03-28T05:35:55.271Z,74.00
2018-03-28T05:38:21.493Z,73.90
2018-03-28T05:40:48.500Z,74.10
2018-03-28T05:43:14.722Z,73.90
2018-03-28T05:45:40.960Z,73.70
2018-03-28T05:48:07.223Z,73.60
2018-03-28T05:50:34.216Z,73.70
2018-03-28T05:53:00.436Z,73.50
2018-03-28T05:55:27.743Z,73.90
2018-03-28T05:57:54.734Z,74.20
2018-03-28T06:00:20.978Z,74.00
2018-03-28T06:02:47.199Z,74.70
2018-03-28T06:05:13.412Z,75.10
2018-03-28T06:07:39.621Z,75.40
2018-03-28T06:10:05.897Z,75.60
2018-03-28T06:12:32.139Z,75.90
2018-03-28T06:14:58.379Z,76.00
2018-03-28T06:17:24.655Z,76.40
2018-03-28T06:19:50.953Z,77.40
2018-03-28T06:22:17.906Z,76.10
2018-03-28T06:24:44.164Z,76.10
2018-03-28T06:27:10.403Z,76.40
2018-03-28T06:29:36.585Z,76.10
2018-03-28T06:32:02.841Z,76.40
2018-03-28T06:34:29.088Z,76.30
2018-03-28T06:36:55.275Z,76.60
2018-03-28T06:39:22.283Z,76.70
2018-03-28T06:41:48.509Z,76.70
2018-03-28T06:44:15.531Z,76.70
2018-03-28T06:46:41.776Z,76.60
2018-03-28T06:49:08.052Z,76.60
2018-03-28T06:51:35.056Z,76.60
2018-03-28T06:54:01.285Z,76.60
2018-03-28T06:56:27.632Z,76.30
2018-03-28T06:58:54.651Z,76.20
2018-03-28T07:01:21.944Z,76.10
2018-03-28T07:03:48.975Z,75.80
2018-03-28T07:06:15.196Z,75.80
2018-03-28T07:08:41.399Z,75.80
2018-03-28T07:11:07.669Z,75.50
2018-03-28T07:13:34.643Z,75.00
2018-03-28T07:16:00.863Z,74.90
2018-03-28T07:18:27.152Z,74.40
2018-03-28T07:20:53.331Z,73.40
2018-03-28T07:23:22.768Z,72.80
2018-03-28T07:25:49.121Z,73.30
2018-03-28T07:28:16.085Z,73.00
2018-03-28T07:30:42.333Z,73.00
2018-03-28T07:33:08.598Z,73.10
2018-03-28T07:35:34.857Z,72.60
2018-03-28T07:38:01.095Z,72.40
2018-03-28T07:40:28.119Z,72.00
2018-03-28T07:42:54.326Z,71.90
2018-03-28T07:45:20.524Z,71.90
2018-03-28T07:47:46.750Z,70.80
2018-03-28T07:50:12.986Z,71.00
2018-03-28T07:52:39.192Z,70.80
2018-03-28T07:55:05.447Z,70.10
2018-03-28T07:57:31.712Z,69.90
2018-03-28T07:59:57.914Z,68.70
2018-03-28T08:02:24.112Z,69.60
2018-03-28T08:04:50.327Z,67.80
2018-03-28T08:07:17.266Z,67.00
2018-03-28T08:09:43.460Z,67.00
2018-03-28T08:12:09.713Z,65.60
2018-03-28T08:14:35.981Z,64.80
2018-03-28T08:17:02.229Z,65.80
2018-03-28T08:19:28.436Z,64.30
2018-03-28T08:21:54.652Z,63.90
2018-03-28T08:24:20.961Z,64.70
2018-03-28T08:26:47.911Z,62.10
2018-03-28T08:29:27.423Z,59.70
2018-03-28T08:31:53.645Z,59.70
2018-03-28T08:34:19.896Z,59.10
2018-03-28T08:36:46.858Z,59.60
2018-03-28T08:39:13.096Z,59.50
2018-03-28T08:41:39.399Z,58.60
2018-03-28T08:44:05.656Z,58.40
2018-03-28T08:46:31.876Z,58.90
2018-03-28T08:48:58.150Z,58.40
2018-03-28T08:51:24.404Z,59.30
2018-03-28T08:53:50.626Z,59.00
2018-03-28T08:56:16.896Z,59.70
2018-03-28T08:58:43.113Z,60.10
2018-03-28T09:01:09.349Z,59.80
2018-03-28T09:03:35.556Z,59.60
2018-03-28T09:06:02.593Z,59.30
2018-03-28T09:08:28.834Z,59.20
2018-03-28T09:10:55.820Z,60.10
2018-03-28T09:13:22.044Z,59.90
2018-03-28T09:18:45.034Z,60.10
2018-03-28T09:21:11.273Z,59.90
2018-03-28T09:23:37.491Z,59.90
2018-03-28T09:26:03.805Z,60.00
2018-03-28T09:28:30.080Z,59.10
2018-03-28T09:30:57.080Z,59.40
2018-03-28T09:33:23.304Z,59.30
2018-03-28T09:35:49.522Z,59.60
2018-03-28T09:38:15.761Z,58.90
2018-03-28T09:40:42.038Z,59.70
2018-03-28T09:43:08.219Z,59.90
2018-03-28T09:45:34.466Z,60.00
2018-03-28T09:48:00.665Z,59.60
2018-03-28T09:50:26.932Z,59.50
2018-03-28T09:52:53.173Z,59.80
2018-03-28T09:55:19.422Z,59.30
2018-03-28T09:57:46.391Z,59.50
2018-03-28T10:00:18.841Z,59.40
2018-03-28T10:02:45.859Z,59.90
2018-03-28T10:05:12.127Z,59.80
2018-03-28T10:07:38.319Z,59.60
2018-03-28T10:10:04.610Z,59.40
2018-03-28T10:12:30.868Z,59.00
2018-03-28T10:14:57.095Z,59.30
2018-03-28T10:17:23.299Z,59.60
2018-03-28T10:19:49.554Z,59.70
2018-03-28T10:22:15.764Z,60.80
2018-03-28T10:24:41.979Z,62.60
2018-03-28T10:27:08.188Z,62.00
2018-03-28T10:29:34.441Z,61.90
2018-03-28T10:32:00.691Z,61.80
2018-03-28T10:34:26.893Z,60.40
2018-03-28T10:36:53.128Z,61.20
2018-03-28T10:39:19.370Z,61.00
2018-03-28T10:41:45.622Z,60.10
2018-03-28T10:44:11.869Z,61.20
2018-03-28T10:46:38.119Z,61.00
2018-03-28T10:49:06.486Z,61.40
2018-03-28T10:51:32.725Z,61.40
2018-03-28T10:53:58.949Z,62.50
2018-03-28T10:56:25.242Z,62.40
2018-03-28T10:58:52.214Z,61.20
2018-03-28T11:01:18.461Z,61.20
2018-03-28T11:03:44.699Z,61.90
2018-03-28T11:06:10.921Z,61.50
2018-03-28T11:08:37.121Z,61.30
2018-03-28T11:11:03.384Z,62.40
2018-03-28T11:13:29.597Z,62.80
2018-03-28T11:15:55.869Z,63.00
2018-03-28T11:18:22.087Z,63.00
2018-03-28T11:20:48.339Z,63.80
2018-03-28T11:23:14.545Z,65.20
2018-03-28T11:25:40.756Z,65.10
2018-03-28T11:28:06.953Z,66.10
2018-03-28T11:30:34.276Z,65.50
2018-03-28T11:33:00.511Z,65.70
2018-03-28T11:35:27.582Z,65.70
2018-03-28T11:37:53.883Z,65.70
2018-03-28T11:40:20.135Z,66.20
2018-03-28T11:42:46.347Z,66.50
2018-03-28T11:45:12.556Z,67.10
2018-03-28T11:47:38.850Z,67.80
2018-03-28T11:50:05.041Z,67.70
2018-03-28T11:52:31.244Z,67.70
2018-03-28T11:54:57.527Z,68.20
2018-03-28T11:57:23.748Z,68.70
2018-03-28T11:59:49.995Z,68.60
2018-03-28T12:02:18.268Z,68.80
2018-03-28T12:04:44.549Z,68.30
2018-03-28T12:07:11.561Z,69.30
2018-03-28T12:09:37.773Z,69.20
2018-03-28T12:12:03.999Z,69.40
2018-03-28T12:14:30.233Z,70.10
2018-03-28T12:16:56.459Z,71.00
2018-03-28T12:19:22.697Z,71.80
2018-03-28T12:21:52.526Z,73.20
2018-03-28T12:24:18.798Z,72.80
2018-03-28T12:26:45.131Z,73.90
2018-03-28T12:29:11.331Z,74.80
2018-03-28T12:31:37.571Z,75.20
2018-03-28T12:34:04.535Z,76.20
2018-03-28T12:36:30.734Z,76.10
2018-03-28T12:38:57.742Z,77.00
2018-03-28T12:41:23.979Z,77.00
2018-03-28T12:43:50.171Z,77.80
2018-03-28T12:46:16.451Z,77.90
2018-03-28T12:48:42.678Z,78.40
2018-03-28T12:51:08.897Z,78.70
2018-03-28T12:53:35.108Z,78.80
2018-03-28T12:56:01.462Z,78.50
2018-03-28T12:58:27.686Z,78.60
2018-03-28T13:00:53.919Z,78.90
2018-03-28T13:03:20.175Z,78.90
2018-03-28T13:05:46.423Z,79.30
2018-03-28T13:08:12.661Z,79.40
2018-03-28T13:10:39.947Z,79.90
2018-03-28T13:13:06.186Z,79.50
2018-03-28T13:15:32.419Z,79.00
2018-03-28T13:17:58.614Z,79.30
2018-03-28T13:20:24.855Z,78.90
2018-03-28T13:22:51.112Z,79.30
2018-03-28T13:25:17.307Z,79.00
2018-03-28T13:27:43.618Z,78.80
2018-03-28T13:30:09.860Z,78.20
2018-03-28T13:32:36.048Z,78.60
2018-03-28T13:35:02.290Z,78.50
2018-03-28T13:37:28.487Z,79.00
2018-03-28T13:39:56.529Z,77.80
2018-03-28T13:42:22.770Z,77.70
2018-03-28T13:44:49.012Z,78.10
2018-03-28T13:47:16.015Z,77.80
2018-03-28T13:49:42.257Z,77.80
2018-03-28T13:52:08.449Z,77.50
2018-03-28T13:54:34.664Z,77.50
2018-03-28T13:57:00.954Z,78.00
2018-03-28T13:59:27.971Z,78.30
2018-03-28T14:01:54.193Z,78.30
2018-03-28T14:04:20.423Z,77.40
2018-03-28T14:06:46.685Z,78.40
2018-03-28T14:09:12.965Z,78.50
2018-03-28T14:11:39.212Z,78.20
2018-03-28T14:14:06.463Z,77.70
2018-03-28T14:16:32.665Z,78.40
2018-03-28T14:18:58.887Z,78.20
2018-03-28T14:21:25.089Z,78.60
2018-03-28T14:23:52.029Z,78.50
2018-03-28T14:26:18.262Z,78.40
2018-03-28T14:28:45.245Z,78.70
2018-03-28T14:31:11.575Z,78.70
2018-03-28T14:33:37.799Z,78.80
2018-03-28T14:36:04.352Z,79.00
2018-03-28T14:38:31.056Z,78.90
2018-03-28T14:40:57.298Z,79.20
2018-03-28T14:43:23.545Z,79.30
2018-03-28T14:45:49.764Z,79.80
2018-03-28T14:48:15.984Z,80.60
2018-03-28T14:50:42.237Z,80.80
2018-03-28T14:53:08.485Z,80.80
2018-03-28T14:55:34.774Z,81.50
2018-03-28T14:58:01.075Z,81.40
2018-03-28T15:00:27.350Z,82.70
2018-03-28T15:02:53.570Z,81.80
2018-03-28T15:05:19.820Z,81.50
2018-03-28T15:07:46.117Z,82.00
2018-03-28T15:10:12.365Z,81.90
2018-03-28T15:12:38.584Z,82.40
2018-03-28T15:15:04.928Z,82.60
2018-03-28T15:17:31.146Z,82.10
2018-03-28T15:19:57.399Z,82.60
2018-03-28T15:22:23.627Z,82.10
2018-03-28T15:24:49.844Z,81.50
2018-03-28T15:27:16.069Z,82.30
2018-03-28T15:29:42.328Z,81.50
2018-03-28T15:32:09.283Z,81.50
2018-03-28T15:34:36.263Z,82.10
2018-03-28T15:37:06.321Z,82.10
2018-03-28T15:39:33.297Z,82.40
2018-03-28T15:41:59.573Z,82.40
2018-03-28T15:44:25.800Z,81.90
2018-03-28T15:46:52.032Z,82.20
2018-03-28T15:49:18.268Z,81.90
2018-03-28T15:51:44.475Z,81.60
2018-03-28T15:54:10.674Z,81.40
2018-03-28T15:56:40.611Z,81.60
2018-03-28T15:59:06.876Z,81.70
2018-03-28T16:01:33.088Z,81.10
2018-03-28T16:03:59.344Z,81.50
2018-03-28T16:06:25.568Z,81.40
2018-03-28T16:08:51.816Z,81.00
2018-03-28T16:11:18.096Z,81.60
2018-03-28T16:13:44.398Z,80.80
2018-03-28T16:16:10.638Z,81.40
2018-03-28T16:18:36.916Z,81.40
2018-03-28T16:21:03.101Z,81.70
2018-03-28T16:23:29.327Z,81.20
2018-03-28T16:25:55.545Z,81.50
2018-03-28T16:28:21.771Z,81.00
2018-03-28T16:30:48.034Z,80.70
2018-03-28T16:33:14.246Z,81.40
2018-03-28T16:35:40.490Z,81.30
2018-03-28T16:38:06.793Z,81.30
2018-03-28T16:40:33.076Z,80.90
2018-03-28T16:42:59.329Z,81.30
2018-03-28T16:45:25.500Z,81.50
2018-03-28T16:47:51.754Z,81.60
2018-03-28T16:50:18.712Z,81.90
2018-03-28T16:52:45.707Z,82.40
2018-03-28T16:55:11.977Z,82.40
2018-03-28T16:57:38.948Z,82.30
2018-03-28T17:00:05.191Z,82.20
2018-03-28T17:02:31.419Z,82.30
2018-03-28T17:04:57.674Z,82.40
2018-03-28T17:07:23.933Z,82.50
2018-03-28T17:09:50.898Z,82.90
2018-03-28T17:12:17.141Z,82.90
2018-03-28T17:14:43.392Z,83.20
2018-03-28T17:17:09.678Z,82.80
2018-03-28T17:19:36.635Z,82.80
2018-03-28T17:22:02.881Z,82.60
2018-03-28T17:24:29.092Z,82.60
2018-03-28T17:26:55.386Z,83.70
2018-03-28T17:29:21.588Z,83.70
2018-03-28T17:31:47.813Z,84.40
2018-03-28T17:34:14.049Z,84.20
2018-03-28T17:36:40.278Z,84.20
2018-03-28T17:39:06.602Z,84.70
2018-03-28T17:41:32.930Z,84.00
2018-03-28T17:43:59.129Z,84.30
2018-03-28T17:46:25.371Z,84.80
2018-03-28T17:48:51.620Z,84.90
2018-03-28T17:51:17.891Z,85.70
2018-03-28T17:53:44.868Z,85.50
2018-03-28T17:56:11.134Z,85.30
2018-03-28T17:58:37.371Z,85.20
2018-03-28T18:01:03.620Z,84.40
2018-03-28T18:03:29.838Z,84.90
2018-03-28T18:05:57.023Z,84.60
2018-03-28T18:08:23.252Z,84.40
2018-03-28T18:10:49.461Z,84.60
2018-03-28T18:13:15.708Z,84.60
2018-03-28T18:15:41.977Z,84.70
2018-03-28T18:18:08.188Z,84.60
2018-03-28T18:20:34.410Z,84.80
2018-03-28T18:23:00.641Z,84.90
2018-03-28T18:25:26.904Z,84.50
2018-03-28T18:27:53.087Z,84.40
2018-03-28T18:30:19.308Z,84.40
2018-03-28T18:32:45.518Z,84.60
2018-03-28T18:35:11.746Z,84.80
2018-03-28T18:37:38.014Z,84.20
2018-03-28T18:40:04.245Z,84.10
2018-03-28T18:42:30.523Z,84.20
2018-03-28T18:44:57.479Z,83.80
2018-03-28T18:47:23.717Z,83.80
2018-03-28T18:49:49.944Z,82.50
2018-03-28T18:52:16.141Z,82.20
2018-03-28T18:54:43.156Z,82.10
2018-03-28T18:57:09.404Z,82.10
2018-03-28T18:59:35.624Z,81.70
2018-03-28T19:02:01.869Z,81.50
2018-03-28T19:04:28.865Z,81.10
2018-03-28T19:06:55.120Z,81.10
2018-03-28T19:09:21.345Z,81.20
2018-03-28T19:11:47.679Z,81.30
2018-03-28T19:14:13.902Z,81.50
2018-03-28T19:16:40.192Z,81.50
2018-03-28T19:19:06.427Z,81.40
2018-03-28T19:21:32.758Z,81.40
2018-03-28T19:23:59.005Z,81.30
2018-03-28T19:26:25.250Z,81.20
2018-03-28T19:28:51.447Z,81.00
2018-03-28T19:31:17.656Z,81.10
2018-03-28T19:33:43.910Z,81.00
2018-03-28T19:36:10.145Z,80.90
2018-03-28T19:38:36.429Z,80.90
2018-03-28T19:41:02.673Z,80.50
2018-03-28T19:43:28.921Z,80.70
2018-03-28T19:45:55.164Z,80.50
2018-03-28T19:48:21.408Z,80.20
2018-03-28T19:50:47.635Z,81.30
2018-03-28T19:53:13.896Z,80.20
2018-03-28T19:55:40.169Z,81.50
2018-03-28T19:58:06.381Z,81.20
2018-03-28T20:00:32.946Z,80.60
2018-03-28T20:02:59.216Z,79.10
2018-03-28T20:05:25.652Z,78.30
2018-03-28T20:07:52.420Z,77.40
2018-03-28T20:10:19.581Z,77.50
2018-03-28T20:12:46.655Z,76.90
2018-03-28T20:15:12.866Z,76.90
2018-03-28T20:17:39.161Z,75.90
2018-03-28T20:20:05.470Z,76.00
2018-03-28T20:22:31.773Z,75.80
2018-03-28T20:24:58.112Z,77.70
2018-03-28T20:27:24.371Z,76.90
2018-03-28T20:29:50.649Z,76.50
2018-03-28T20:32:17.037Z,76.90
2018-03-28T20:34:43.277Z,76.10
2018-03-28T20:37:09.602Z,76.20
2018-03-28T20:39:35.935Z,76.00
2018-03-28T20:42:02.278Z,75.30
2018-03-28T20:44:28.651Z,74.30
2018-03-28T20:46:54.926Z,73.20
2018-03-28T20:49:21.204Z,74.30
2018-03-28T20:51:47.565Z,73.40
2018-03-28T20:54:14.605Z,73.60
2018-03-28T20:56:40.798Z,73.60
2018-03-28T20:59:07.017Z,74.20
2018-03-28T21:01:33.263Z,75.80
2018-03-28T21:03:59.574Z,77.10
2018-03-28T21:06:25.860Z,77.50
2018-03-28T21:08:52.172Z,77.20
2018-03-28T21:11:18.524Z,76.90
2018-03-28T21:13:44.784Z,76.20
2018-03-28T21:16:11.078Z,76.40
2018-03-28T21:18:37.389Z,76.30
2018-03-28T21:21:04.451Z,74.10
2018-03-28T21:23:30.822Z,74.10
2018-03-28T21:25:57.094Z,73.00
2018-03-28T21:28:24.132Z,68.00
2018-03-28T21:30:50.392Z,68.00
2018-03-28T21:33:16.651Z,66.20
2018-03-28T21:35:42.954Z,67.20
2018-03-28T21:38:09.276Z,67.20
2018-03-28T21:40:35.474Z,66.70
2018-03-28T21:43:01.737Z,66.70
2018-03-28T21:45:28.000Z,66.10
2018-03-28T21:47:54.266Z,65.30
2018-03-28T21:50:21.217Z,65.30
2018-03-28T21:52:48.170Z,64.80
2018-03-28T21:55:15.095Z,64.20
2018-03-28T21:57:41.342Z,64.10
2018-03-28T22:00:08.315Z,63.90
2018-03-28T22:02:34.526Z,63.90
2018-03-28T22:05:00.735Z,64.40
2018-03-28T22:07:27.671Z,63.50
2018-03-28T22:09:54.623Z,63.40
2018-03-28T22:12:21.571Z,63.50
2018-03-28T22:14:48.569Z,63.10
2018-03-28T22:17:14.820Z,63.10
2018-03-28T22:19:41.066Z,64.40
2018-03-28T22:22:08.063Z,64.20
2018-03-28T22:24:34.296Z,64.20
2018-03-28T22:27:00.500Z,63.80
2018-03-28T22:29:26.765Z,62.10
2018-03-28T22:31:53.017Z,61.90
2018-03-28T22:34:20.258Z,62.00
2018-03-28T22:36:46.497Z,60.40
2018-03-28T22:39:12.729Z,60.70
2018-03-28T22:41:38.940Z,61.00
2018-03-28T22:44:05.195Z,59.80
2018-03-28T22:46:32.200Z,61.10
2018-03-28T22:48:58.443Z,61.10
2018-03-28T22:51:24.648Z,61.40
2018-03-28T22:53:50.872Z,61.30
2018-03-28T22:56:17.169Z,61.10
2018-03-28T22:58:43.363Z,61.60
2018-03-28T23:01:09.593Z,60.30
2018-03-28T23:03:36.563Z,60.20
2018-03-28T23:06:03.580Z,60.70
2018-03-28T23:08:29.797Z,60.60
2018-03-28T23:10:56.024Z,61.00
2018-03-28T23:13:22.303Z,61.10
2018-03-28T23:15:48.610Z,60.90
2018-03-28T23:18:15.604Z,60.20
2018-03-28T23:20:41.872Z,60.80
2018-03-28T23:23:08.106Z,61.10
2018-03-28T23:25:34.322Z,61.60
2018-03-28T23:28:00.598Z,61.90
2018-03-28T23:30:26.833Z,62.00
2018-03-28T23:32:53.080Z,62.00
2018-03-28T23:35:19.284Z,62.00
2018-03-28T23:37:45.516Z,59.90
2018-03-28T23:40:11.722Z,60.70
2018-03-28T23:42:38.723Z,59.30
2018-03-28T23:45:04.990Z,59.30
2018-03-28T23:47:31.942Z,59.70
2018-03-28T23:49:58.927Z,59.90
2018-03-28T23:52:25.127Z,59.90
2018-03-28T23:54:51.356Z,59.00
2018-03-28T23:57:17.596Z,59.40
2018-03-28T23:59:43.862Z,59.10
